Time;durP1;ratioP1;P1;durP2;ratioP2;P2;SDS_P1;SDS_P2;PMS_P1;PMS_P2;Temp;Humidity;BMP_temperature;BMP_pressure;BME280_temperature;BME280_humidity;BME280_pressure;Samples;Min_cycle;Max_cycle;Signal;HPM_P1;HPM_P2
2022/07/01 00:01:07;;;;;;;8.90;3.40;;;13.40;99.90;;;;;;4972503;28;20238;-67
2022/07/01 00:03:34;;;;;;;10.63;4.00;;;13.70;99.90;;;;;;4973191;28;20738;-67
2022/07/01 00:06:00;;;;;;;9.50;4.20;;;13.50;99.90;;;;;;4972739;28;20227;-67
2022/07/01 00:08:26;;;;;;;9.47;4.00;;;;;;;;;;4972490;28;20176;-67
2022/07/01 00:10:51;;;;;;;8.82;4.32;;;13.50;99.90;;;;;;4972610;28;20266;-67
2022/07/01 00:13:17;;;;;;;10.65;4.18;;;13.50;99.90;;;;;;4972811;28;20600;-67
2022/07/01 00:15:43;;;;;;;12.10;4.40;;;13.50;99.90;;;;;;4972488;28;20184;-67
2022/07/01 00:18:09;;;;;;;18.02;4.40;;;13.50;99.90;;;;;;4972598;28;20647;-67
2022/07/01 00:20:34;;;;;;;9.75;3.97;;;13.40;99.90;;;;;;4972685;28;20730;-67
2022/07/01 00:23:00;;;;;;;9.85;4.13;;;13.50;99.90;;;;;;4971775;28;20187;-67
2022/07/01 00:25:26;;;;;;;12.05;4.07;;;;;;;;;;4972418;28;20677;-67
2022/07/01 00:27:52;;;;;;;16.52;4.10;;;13.40;99.90;;;;;;4972475;28;20172;-66
2022/07/01 00:30:18;;;;;;;12.80;4.07;;;13.40;99.90;;;;;;4972335;28;20175;-67
2022/07/01 00:32:44;;;;;;;9.00;3.97;;;13.30;99.90;;;;;;4970816;28;20252;-63
2022/07/01 00:35:09;;;;;;;11.43;4.13;;;13.30;99.90;;;;;;4972633;28;20176;-64
2022/07/01 00:37:35;;;;;;;10.13;4.13;;;13.40;99.90;;;;;;4972351;28;20549;-64
2022/07/01 00:40:01;;;;;;;12.38;4.18;;;13.50;99.90;;;;;;4972105;28;20334;-64
2022/07/01 00:42:26;;;;;;;8.80;3.83;;;13.40;99.90;;;;;;4972035;28;20183;-64
2022/07/01 00:44:52;;;;;;;13.70;3.30;;;13.20;99.90;;;;;;4972059;28;20212;-63
2022/07/01 00:47:18;;;;;;;10.10;3.53;;;13.30;99.90;;;;;;4955004;28;20639;-64
2022/07/01 00:49:44;;;;;;;17.48;3.55;;;13.40;99.90;;;;;;4971900;28;20193;-64
2022/07/01 00:52:10;;;;;;;10.57;3.40;;;13.30;99.90;;;;;;4972031;28;20187;-64
2022/07/01 00:54:37;;;;;;;12.48;3.92;;;9.80;99.90;;;;;;4972084;28;20191;-64
2022/07/01 00:57:11;;;;;;;12.13;3.83;;;13.30;99.90;;;;;;4972219;28;20184;-64
2022/07/01 00:59:38;;;;;;;11.43;3.73;;;13.30;99.90;;;;;;4971191;28;20180;-64
2022/07/01 01:02:05;;;;;;;8.35;3.50;;;13.30;99.90;;;;;;4971870;28;20172;-64
2022/07/01 01:04:31;;;;;;;7.00;3.05;;;13.30;99.90;;;;;;4971734;28;20641;-64
2022/07/01 01:06:57;;;;;;;10.57;3.50;;;13.20;99.90;;;;;;4971345;28;20182;-63
2022/07/01 01:09:22;;;;;;;8.60;3.38;;;13.20;99.90;;;;;;4971697;28;20219;-63
2022/07/01 01:11:50;;;;;;;12.80;3.95;;;13.10;99.90;;;;;;4971490;28;20180;-63
2022/07/01 01:14:15;;;;;;;7.80;3.30;;;13.10;99.90;;;;;;4971939;28;20175;-63
2022/07/01 01:16:41;;;;;;;10.88;3.50;;;13.10;99.90;;;;;;4971767;28;20214;-63
2022/07/01 01:19:07;;;;;;;8.50;3.65;;;13.10;99.90;;;;;;4954784;28;20180;-63
2022/07/01 01:21:36;;;;;;;16.77;3.70;;;13.00;99.90;;;;;;4971130;28;20178;-63
2022/07/01 01:24:02;;;;;;;8.53;3.50;;;13.10;99.90;;;;;;4971815;28;20233;-63
2022/07/01 01:26:29;;;;;;;9.43;3.30;;;13.10;99.90;;;;;;4971464;28;20172;-63
2022/07/01 01:28:55;;;;;;;16.02;4.00;;;13.10;99.90;;;;;;4971948;28;20273;-62
2022/07/01 01:31:35;;;;;;;9.05;3.78;;;13.10;99.90;;;;;;4971545;28;20222;-63
2022/07/01 01:34:02;;;;;;;12.15;3.90;;;13.10;99.90;;;;;;4968673;28;20184;-63
2022/07/01 01:36:28;;;;;;;13.52;3.88;;;13.10;99.90;;;;;;4971402;28;20682;-63
2022/07/01 01:39:01;;;;;;;9.15;3.70;;;;;;;;;;4971727;28;20179;-63
2022/07/01 01:41:27;;;;;;;12.77;3.90;;;13.00;99.90;;;;;;4971441;28;20271;-63
2022/07/01 01:43:52;;;;;;;10.07;3.90;;;13.00;99.90;;;;;;4954423;28;20442;-63
2022/07/01 01:46:18;;;;;;;16.30;4.32;;;13.10;99.90;;;;;;4971577;28;20184;-63
2022/07/01 01:48:44;;;;;;;8.30;3.83;;;13.00;99.90;;;;;;4954085;28;20176;-63
2022/07/01 01:51:09;;;;;;;12.85;4.07;;;12.60;99.90;;;;;;4971282;28;20180;-63
2022/07/01 01:53:35;;;;;;;9.82;4.20;;;13.00;99.90;;;;;;4971448;28;20639;-64
2022/07/01 01:56:01;;;;;;;17.33;4.30;;;12.90;99.90;;;;;;4971412;28;20176;-64
2022/07/01 01:58:27;;;;;;;14.45;3.70;;;;;;;;;;4954017;28;20234;-63
2022/07/01 02:00:52;;;;;;;12.13;3.90;;;12.90;99.90;;;;;;4971476;28;20176;-63
2022/07/01 02:03:18;;;;;;;16.88;4.22;;;12.90;99.90;;;;;;4971009;28;20609;-63
2022/07/01 02:05:44;;;;;;;14.97;4.17;;;12.70;99.90;;;;;;4971327;28;20180;-63
2022/07/01 02:08:10;;;;;;;13.85;4.43;;;13.00;99.90;;;;;;4971275;28;20180;-63
2022/07/01 02:10:35;;;;;;;12.98;3.80;;;13.10;99.90;;;;;;4971350;28;20224;-63
2022/07/01 02:13:01;;;;;;;15.37;3.87;;;13.00;99.90;;;;;;4971473;28;20180;-63
2022/07/01 02:15:27;;;;;;;10.00;3.90;;;12.90;99.90;;;;;;4971443;28;20180;-64
2022/07/01 02:17:56;;;;;;;11.80;3.63;;;12.90;99.90;;;;;;4971462;28;20218;-63
2022/07/01 02:20:22;;;;;;;15.13;4.10;;;13.00;99.90;;;;;;4972217;28;20386;-63
2022/07/01 02:22:48;;;;;;;17.73;4.20;;;12.90;99.90;;;;;;4974115;28;20180;-64
2022/07/01 02:25:13;;;;;;;9.37;3.70;;;12.80;99.90;;;;;;4974950;28;20227;-63
2022/07/01 02:27:39;;;;;;;13.03;3.90;;;13.00;99.90;;;;;;4974417;28;20793;-64
2022/07/01 02:30:06;;;;;;;13.33;4.17;;;12.90;99.90;;;;;;4974584;28;20186;-64
2022/07/01 02:32:32;;;;;;;12.07;4.00;;;13.00;99.90;;;;;;4974453;28;20180;-64
2022/07/01 02:34:58;;;;;;;12.13;3.80;;;12.80;99.90;;;;;;4974854;28;20188;-64
2022/07/01 02:37:23;;;;;;;9.60;4.03;;;12.80;99.90;;;;;;4974330;28;20230;-64
2022/07/01 02:39:49;;;;;;;13.30;3.80;;;12.80;99.90;;;;;;4974344;28;20254;-63
2022/07/01 02:42:25;;;;;;;11.23;3.30;;;12.70;99.90;;;;;;4974527;28;20203;-64
2022/07/01 02:44:55;;;;;;;14.10;3.05;;;12.70;99.90;;;;;;4974448;28;20207;-64
2022/07/01 02:47:21;;;;;;;10.57;3.30;;;12.60;99.90;;;;;;4974728;28;20177;-63
2022/07/01 02:49:48;;;;;;;9.60;3.50;;;12.70;99.90;;;;;;4974449;28;20180;-62
2022/07/01 02:52:15;;;;;;;7.77;3.23;;;12.60;99.90;;;;;;4974447;28;20176;-63
2022/07/01 02:54:41;;;;;;;11.93;3.87;;;12.60;99.90;;;;;;4974147;28;20168;-64
2022/07/01 02:57:07;;;;;;;11.03;3.60;;;12.50;99.90;;;;;;4974179;28;20271;-64
2022/07/01 02:59:33;;;;;;;15.30;3.73;;;12.60;99.90;;;;;;4974345;28;20330;-64
2022/07/01 03:01:59;;;;;;;13.17;3.63;;;12.70;99.90;;;;;;4973781;28;20717;-64
2022/07/01 03:04:25;;;;;;;10.57;3.53;;;12.40;99.90;;;;;;4973709;28;20239;-64
2022/07/01 03:06:50;;;;;;;5.93;3.60;;;12.20;99.90;;;;;;4973849;28;20546;-62
2022/07/01 03:09:16;;;;;;;12.50;3.10;;;12.40;99.90;;;;;;4956591;28;20675;-62
2022/07/01 03:11:42;;;;;;;9.93;3.80;;;12.30;99.90;;;;;;4973680;28;20223;-64
2022/07/01 03:14:07;;;;;;;8.13;3.80;;;12.20;99.90;;;;;;4973930;28;20723;-64
2022/07/01 03:16:33;;;;;;;12.20;4.13;;;12.20;99.90;;;;;;4973759;28;20171;-64
2022/07/01 03:18:59;;;;;;;14.23;3.80;;;12.10;99.90;;;;;;4973809;28;20697;-64
2022/07/01 03:21:24;;;;;;;16.80;3.83;;;12.20;99.90;;;;;;4973941;28;20176;-64
2022/07/01 03:23:50;;;;;;;15.47;4.17;;;12.10;99.90;;;;;;4972613;28;20212;-63
2022/07/01 03:26:16;;;;;;;11.23;4.47;;;12.10;99.90;;;;;;4973187;28;20614;-63
2022/07/01 03:28:41;;;;;;;13.20;5.00;;;12.20;99.90;;;;;;4972623;28;20218;-64
2022/07/01 03:31:07;;;;;;;6.53;4.20;;;12.30;99.90;;;;;;4972569;28;20183;-64
2022/07/01 03:33:33;;;;;;;9.97;4.40;;;11.90;99.90;;;;;;4972277;28;20584;-64
2022/07/01 03:35:59;;;;;;;10.07;4.27;;;12.20;99.90;;;;;;4973205;28;20207;-63
2022/07/01 03:38:25;;;;;;;9.07;4.07;;;12.10;99.90;;;;;;4973702;28;20183;-63
2022/07/01 03:40:50;;;;;;;15.00;4.77;;;11.90;99.90;;;;;;4972909;28;20257;-64
2022/07/01 03:43:16;;;;;;;14.23;4.37;;;11.30;99.90;;;;;;4972913;28;20540;-64
2022/07/01 03:45:42;;;;;;;10.57;4.87;;;10.20;99.90;;;;;;4973295;28;20188;-64
2022/07/01 03:48:08;;;;;;;9.67;3.83;;;11.90;99.90;;;;;;4973009;28;20180;-64
2022/07/01 03:50:33;;;;;;;15.37;4.70;;;12.10;99.90;;;;;;4973206;28;20188;-63
2022/07/01 03:55:43;;;;;;;11.27;4.10;;;11.90;99.90;;;;;;4973476;28;20658;-63
2022/07/01 03:58:09;;;;;;;9.17;4.73;;;11.90;99.90;;;;;;4973244;28;20188;-63
2022/07/01 04:00:36;;;;;;;13.43;4.63;;;11.90;99.90;;;;;;4972333;28;20183;-63
2022/07/01 04:03:04;;;;;;;9.77;4.40;;;11.90;99.90;;;;;;4972651;28;20267;-62
2022/07/01 04:05:33;;;;;;;10.33;4.37;;;11.70;99.90;;;;;;4972505;28;20642;-63
2022/07/01 04:07:59;;;;;;;11.43;5.00;;;11.80;99.90;;;;;;4972845;28;20180;-63
2022/07/01 04:10:24;;;;;;;9.30;4.33;;;11.80;99.90;;;;;;4972497;28;20302;-63
2022/07/01 04:12:50;;;;;;;14.33;5.43;;;11.80;99.90;;;;;;4972996;28;20178;-63
2022/07/01 04:15:17;;;;;;;12.07;5.20;;;11.80;99.90;;;;;;4972494;28;20354;-64
2022/07/01 04:17:43;;;;;;;21.43;5.30;;;11.90;99.90;;;;;;4972341;28;20274;-63
2022/07/01 04:20:09;;;;;;;9.33;5.33;;;11.90;99.90;;;;;;4972557;28;20311;-63
2022/07/01 04:22:38;;;;;;;20.03;6.07;;;11.70;99.90;;;;;;4972675;28;20195;-63
2022/07/01 04:25:04;;;;;;;12.83;5.40;;;12.10;99.90;;;;;;4971993;28;20294;-63
2022/07/01 04:27:31;;;;;;;10.60;5.63;;;11.90;99.90;;;;;;4972127;28;20194;-63
2022/07/01 04:29:56;;;;;;;15.53;5.93;;;11.90;99.90;;;;;;4972511;28;20183;-63
2022/07/01 04:32:23;;;;;;;19.00;6.40;;;12.00;99.90;;;;;;4972510;28;20176;-64
2022/07/01 04:34:49;;;;;;;15.90;5.97;;;12.10;99.90;;;;;;4972388;28;20202;-64
2022/07/01 04:37:15;;;;;;;18.30;6.67;;;12.00;99.90;;;;;;4972268;28;20186;-64
2022/07/01 04:39:40;;;;;;;12.03;5.57;;;12.20;99.90;;;;;;4972318;28;20172;-64
2022/07/01 04:42:06;;;;;;;10.40;5.87;;;12.30;99.90;;;;;;4971384;28;20231;-64
2022/07/01 04:44:33;;;;;;;13.23;6.10;;;12.50;99.90;;;;;;4971825;28;20208;-64
2022/07/01 04:47:00;;;;;;;17.03;5.80;;;12.30;99.90;;;;;;4972264;28;20183;-63
2022/07/01 04:49:26;;;;;;;18.80;6.60;;;12.30;99.90;;;;;;4972545;28;20184;-64
2022/07/01 04:51:52;;;;;;;13.40;5.67;;;12.30;99.90;;;;;;4971974;28;20251;-64
2022/07/01 04:54:18;;;;;;;11.13;6.10;;;12.10;99.90;;;;;;4971909;28;20254;-63
2022/07/01 04:56:44;;;;;;;15.37;5.60;;;12.30;99.90;;;;;;4954926;28;20168;-64
2022/07/01 04:59:11;;;;;;;12.33;5.33;;;12.60;99.90;;;;;;4971592;28;20190;-63
2022/07/01 05:01:37;;;;;;;13.17;4.57;;;12.40;99.90;;;;;;4971553;28;20201;-63
2022/07/01 05:04:03;;;;;;;9.80;3.67;;;12.50;99.90;;;;;;4971805;28;20246;-64
2022/07/01 05:06:29;;;;;;;14.13;3.80;;;12.70;99.90;;;;;;4972059;28;20202;-63
2022/07/01 05:08:55;;;;;;;14.13;4.30;;;12.80;99.90;;;;;;4971831;28;20179;-63
2022/07/01 05:11:20;;;;;;;13.25;3.40;;;12.70;99.90;;;;;;4971800;28;21057;-63
2022/07/01 05:13:46;;;;;;;13.30;3.83;;;12.70;99.90;;;;;;4971633;28;20540;-63
2022/07/01 05:16:12;;;;;;;9.83;2.97;;;12.90;99.90;;;;;;4971910;28;20270;-63
2022/07/01 05:24:07;;;;;;;10.40;2.92;;;13.00;99.90;;;;;;4972027;28;20725;-63
2022/07/01 05:26:33;;;;;;;10.03;2.70;;;13.00;99.90;;;;;;4972067;28;20204;-63
2022/07/01 05:28:59;;;;;;;8.47;2.80;;;12.90;99.90;;;;;;4971839;28;20239;-63
2022/07/01 05:31:25;;;;;;;11.30;2.97;;;13.10;99.90;;;;;;4971680;28;20175;-64
2022/07/01 05:33:51;;;;;;;10.68;2.50;;;13.20;99.90;;;;;;4971538;28;20179;-63
2022/07/01 05:36:17;;;;;;;8.57;2.72;;;13.30;99.90;;;;;;4971938;28;20512;-64
2022/07/01 05:38:43;;;;;;;11.60;3.42;;;13.30;99.90;;;;;;4971179;28;20218;-63
2022/07/01 05:41:09;;;;;;;9.93;2.90;;;13.30;99.90;;;;;;4971581;28;20191;-64
2022/07/01 05:43:34;;;;;;;10.15;2.83;;;13.30;99.90;;;;;;4971745;28;20239;-63
2022/07/01 05:46:01;;;;;;;10.83;3.43;;;13.30;99.90;;;;;;4971698;28;20287;-64
2022/07/01 05:48:27;;;;;;;10.30;3.73;;;13.50;99.90;;;;;;4971486;28;20231;-64
2022/07/01 05:50:53;;;;;;;10.37;3.40;;;13.50;99.90;;;;;;4971597;28;20230;-64
2022/07/01 05:53:19;;;;;;;8.00;3.43;;;13.50;99.90;;;;;;4971336;28;20176;-64
2022/07/01 05:55:45;;;;;;;7.38;3.20;;;13.70;99.90;;;;;;4973197;28;20180;-64
2022/07/01 05:58:11;;;;;;;8.30;3.10;;;13.60;99.90;;;;;;4975041;28;20187;-63
2022/07/01 06:00:41;;;;;;;13.32;2.95;;;13.90;99.90;;;;;;4974633;28;20265;-64
2022/07/01 06:03:11;;;;;;;10.77;3.10;;;13.80;99.90;;;;;;4975140;28;20180;-64
2022/07/01 06:05:37;;;;;;;11.75;3.00;;;13.90;99.90;;;;;;4973569;28;20186;-64
2022/07/01 06:08:03;;;;;;;10.73;2.42;;;13.90;99.90;;;;;;4974516;28;20601;-64
2022/07/01 06:10:29;;;;;;;8.65;3.00;;;13.80;99.90;;;;;;4974804;28;20243;-64
2022/07/01 06:12:55;;;;;;;7.82;2.42;;;;;;;;;;4974721;28;20211;-64
2022/07/01 06:15:21;;;;;;;8.18;2.30;;;13.80;99.90;;;;;;4975149;28;20266;-63
2022/07/01 06:17:49;;;;;;;6.53;1.80;;;13.80;99.90;;;;;;4975329;28;20234;-64
2022/07/01 06:20:15;;;;;;;10.05;1.90;;;13.90;99.90;;;;;;4974935;28;20199;-65
2022/07/01 06:22:41;;;;;;;8.40;2.15;;;13.70;99.90;;;;;;4974068;28;20632;-64
2022/07/01 06:25:07;;;;;;;5.93;1.80;;;13.80;99.90;;;;;;4974445;28;20366;-64
2022/07/01 06:27:41;;;;;;;7.20;2.25;;;13.60;99.90;;;;;;4974584;28;20227;-60
2022/07/01 06:30:08;;;;;;;4.72;1.75;;;13.90;99.90;;;;;;4974579;28;20176;-60
2022/07/01 06:32:34;;;;;;;7.40;2.10;;;14.00;99.90;;;;;;4974672;28;20183;-60
2022/07/01 06:35:00;;;;;;;9.05;1.95;;;14.00;99.90;;;;;;4973667;28;20538;-59
2022/07/01 06:37:26;;;;;;;8.45;2.15;;;;;;;;;;4974307;28;20580;-60
2022/07/01 06:39:51;;;;;;;6.65;2.03;;;14.20;99.90;;;;;;4973308;28;20176;-60
2022/07/01 06:42:17;;;;;;;7.07;2.25;;;14.10;99.90;;;;;;4974461;28;20687;-60
2022/07/01 06:44:43;;;;;;;8.93;1.83;;;14.10;99.90;;;;;;4974359;28;20215;-60
2022/07/01 06:47:09;;;;;;;13.60;2.08;;;14.10;99.90;;;;;;4974675;28;20663;-60
2022/07/01 06:49:34;;;;;;;11.07;2.63;;;14.10;99.90;;;;;;4975036;28;20195;-60
2022/07/01 06:52:00;;;;;;;6.28;1.83;;;14.10;99.90;;;;;;4974951;28;20589;-61
2022/07/01 06:54:28;;;;;;;10.48;2.72;;;14.20;99.90;;;;;;4975076;28;20586;-60
2022/07/01 06:56:54;;;;;;;7.65;2.10;;;14.20;99.90;;;;;;4974866;28;20175;-60
2022/07/01 06:59:20;;;;;;;9.63;2.15;;;14.30;99.90;;;;;;4957346;28;20191;-61
2022/07/01 07:01:45;;;;;;;9.43;1.75;;;14.30;99.90;;;;;;4974583;28;20188;-61
2022/07/01 07:04:11;;;;;;;8.10;1.95;;;14.40;99.90;;;;;;4975488;28;20701;-61
2022/07/01 07:06:37;;;;;;;7.00;2.00;;;14.50;99.90;;;;;;4976542;28;20176;-61
2022/07/01 07:09:03;;;;;;;13.32;2.58;;;14.70;99.90;;;;;;4975773;28;20182;-61
2022/07/01 07:11:28;;;;;;;9.38;1.63;;;15.10;99.90;;;;;;4974325;28;20188;-62
2022/07/01 07:13:54;;;;;;;7.60;2.10;;;15.00;99.90;;;;;;4973309;28;20168;-62
2022/07/01 07:16:20;;;;;;;9.45;2.10;;;15.00;99.90;;;;;;4974099;28;20180;-62
2022/07/01 07:18:47;;;;;;;9.77;1.73;;;14.90;99.90;;;;;;4974071;28;20187;-62
2022/07/01 07:21:13;;;;;;;12.50;2.05;;;15.20;99.90;;;;;;4974193;28;20180;-62
2022/07/01 07:23:39;;;;;;;8.38;2.05;;;15.00;99.90;;;;;;4974186;28;20206;-62
2022/07/01 07:26:05;;;;;;;11.50;2.40;;;15.10;99.90;;;;;;4972514;28;20199;-63
2022/07/01 07:28:30;;;;;;;12.07;2.20;;;15.20;99.90;;;;;;4973194;28;20180;-62
2022/07/01 07:30:56;;;;;;;14.32;2.20;;;15.40;99.90;;;;;;4973700;28;20199;-62
2022/07/01 07:33:22;;;;;;;18.05;2.30;;;15.40;99.90;;;;;;4974078;28;20259;-62
2022/07/01 07:35:48;;;;;;;10.02;1.95;;;15.30;99.90;;;;;;4973908;28;20180;-62
2022/07/01 07:38:14;;;;;;;11.45;2.05;;;15.40;99.90;;;;;;4973476;28;20176;-62
2022/07/01 07:40:40;;;;;;;14.38;2.10;;;15.30;99.90;;;;;;4972840;28;20630;-62
2022/07/01 07:43:07;;;;;;;14.77;2.08;;;15.40;99.90;;;;;;4972881;28;20184;-62
2022/07/01 07:45:33;;;;;;;8.10;1.70;;;15.30;99.90;;;;;;4973121;28;20262;-62
2022/07/01 07:48:00;;;;;;;12.48;2.30;;;15.40;99.90;;;;;;4972344;28;20718;-62
2022/07/01 07:50:26;;;;;;;16.50;2.50;;;15.50;99.90;;;;;;4972884;28;20248;-62
2022/07/01 07:52:52;;;;;;;16.67;2.35;;;15.40;99.90;;;;;;4973104;28;20183;-62
2022/07/01 07:55:18;;;;;;;9.77;1.77;;;15.50;99.90;;;;;;4973562;28;20204;-63
2022/07/01 07:57:44;;;;;;;7.40;1.55;;;15.60;99.90;;;;;;4973430;28;20203;-63
2022/07/01 08:00:12;;;;;;;12.70;2.63;;;15.80;99.90;;;;;;4973269;28;20167;-63
2022/07/01 08:02:38;;;;;;;16.38;2.20;;;15.70;99.90;;;;;;4973404;28;20602;-63
2022/07/01 08:05:05;;;;;;;8.55;1.60;;;15.80;99.90;;;;;;4972935;28;20295;-63
2022/07/01 08:07:36;;;;;;;8.32;1.50;;;15.90;99.90;;;;;;4973256;28;20271;-61
2022/07/01 08:10:02;;;;;;;9.30;1.80;;;15.90;99.90;;;;;;4972875;28;20379;-60
2022/07/01 08:12:27;;;;;;;9.57;1.88;;;16.10;99.90;;;;;;4972830;28;20609;-60
2022/07/01 08:14:53;;;;;;;11.02;2.00;;;15.90;99.90;;;;;;4972669;28;20211;-60
2022/07/01 08:17:19;;;;;;;11.07;1.42;;;16.40;99.90;;;;;;4972835;28;20627;-61
2022/07/01 08:19:45;;;;;;;8.35;1.40;;;16.10;99.90;;;;;;4972388;28;20225;-60
2022/07/01 08:22:10;;;;;;;13.95;1.90;;;16.20;99.90;;;;;;4972794;28;20648;-61
2022/07/01 08:24:36;;;;;;;13.95;2.50;;;16.40;99.90;;;;;;4972724;28;20666;-61
2022/07/01 08:27:02;;;;;;;14.25;1.60;;;16.50;99.90;;;;;;4972873;28;20168;-61
2022/07/01 08:29:28;;;;;;;6.55;1.30;;;16.50;99.90;;;;;;4971998;28;20183;-61
2022/07/01 08:31:53;;;;;;;11.48;1.33;;;16.60;99.90;;;;;;4971525;28;20224;-58
2022/07/01 08:34:19;;;;;;;9.32;1.48;;;16.60;99.90;;;;;;4972322;28;20183;-59
2022/07/01 08:36:45;;;;;;;6.88;1.23;;;16.60;99.90;;;;;;4971918;28;20186;-61
2022/07/01 08:39:11;;;;;;;8.68;1.85;;;16.50;99.90;;;;;;4971951;28;20176;-61
2022/07/01 08:41:40;;;;;;;8.90;1.63;;;16.50;99.90;;;;;;4972299;28;20255;-61
2022/07/01 08:44:06;;;;;;;10.40;1.20;;;16.60;99.90;;;;;;4971502;28;20709;-61
2022/07/01 08:46:33;;;;;;;6.10;1.10;;;16.60;99.90;;;;;;4972414;28;20171;-61
2022/07/01 08:48:59;;;;;;;6.57;1.27;;;16.80;99.90;;;;;;4972241;28;20246;-61
2022/07/01 08:51:24;;;;;;;5.78;1.52;;;17.00;99.90;;;;;;4972739;28;20640;-61
2022/07/01 08:53:50;;;;;;;6.47;1.25;;;16.90;99.90;;;;;;4971781;28;20180;-61
2022/07/01 08:59:00;;;;;;;8.65;1.25;;;17.70;99.90;;;;;;4972248;28;20563;-61
2022/07/01 09:01:26;;;;;;;9.07;1.30;;;16.90;99.90;;;;;;4970877;28;20176;-61
2022/07/01 09:03:55;;;;;;;4.88;1.13;;;17.00;99.90;;;;;;4971727;28;20215;-61
2022/07/01 09:06:28;;;;;;;12.70;1.42;;;17.10;99.90;;;;;;4971857;28;20184;-61
2022/07/01 09:09:03;;;;;;;7.63;1.20;;;17.20;99.90;;;;;;4971499;28;20516;-60
2022/07/01 09:11:28;;;;;;;8.25;1.15;;;17.30;99.90;;;;;;4971128;28;20223;-61
2022/07/01 09:14:09;;;;;;;7.22;1.08;;;17.60;99.90;;;;;;4971610;28;20191;-61
2022/07/01 09:16:48;;;;;;;6.47;1.50;;;17.80;99.90;;;;;;4972258;28;20261;-61
2022/07/01 09:19:18;;;;;;;9.10;1.40;;;17.80;99.90;;;;;;4965368;28;20172;-62
2022/07/01 09:21:52;;;;;;;9.52;1.50;;;17.70;99.90;;;;;;4971480;28;20743;-60
2022/07/01 09:24:24;;;;;;;10.30;1.38;;;18.00;99.90;;;;;;4971455;28;20207;-59
2022/07/01 09:26:59;;;;;;;8.25;1.38;;;18.00;99.90;;;;;;4971923;28;20187;-60
2022/07/01 09:29:33;;;;;;;7.43;1.10;;;17.90;99.90;;;;;;4972230;28;20643;-60
2022/07/01 09:32:02;;;;;;;6.65;1.35;;;17.90;99.90;;;;;;4975049;28;20242;-60
2022/07/01 09:34:33;;;;;;;9.77;1.27;;;18.00;99.90;;;;;;4976239;28;20188;-60
2022/07/01 09:36:59;;;;;;;11.68;1.35;;;17.90;99.90;;;;;;4975369;28;20183;-60
2022/07/01 09:39:25;;;;;;;9.05;1.05;;;17.90;99.90;;;;;;4975463;28;20168;-60
2022/07/01 09:41:55;;;;;;;5.45;1.10;;;17.90;99.90;;;;;;4975759;28;20194;-61
2022/07/01 09:44:21;;;;;;;7.00;1.35;;;18.30;99.90;;;;;;4975724;28;20361;-60
2022/07/01 09:46:57;;;;;;;9.75;1.48;;;18.60;99.90;;;;;;4975032;28;20255;-61
2022/07/01 09:49:24;;;;;;;9.35;1.33;;;19.10;99.90;;;;;;4975728;28;20180;-60
2022/07/01 09:51:51;;;;;;;5.78;0.90;;;19.40;99.90;;;;;;4975189;28;20260;-60
2022/07/01 09:54:18;;;;;;;9.43;1.17;;;19.50;99.90;;;;;;4975454;28;20180;-60
2022/07/01 09:56:44;;;;;;;2.92;0.50;;;20.00;99.90;;;;;;4975068;28;20179;-60
2022/07/01 09:59:10;;;;;;;8.63;1.17;;;20.00;99.90;;;;;;4975451;28;20175;-61
2022/07/01 10:01:38;;;;;;;4.93;1.00;;;20.30;99.90;;;;;;4975431;28;20753;-60
2022/07/01 10:04:08;;;;;;;4.35;0.77;;;19.90;99.90;;;;;;4975435;28;20207;-61
2022/07/01 10:06:42;;;;;;;5.32;1.08;;;19.50;99.90;;;;;;4975095;28;20179;-60
2022/07/01 10:09:40;;;;;;;7.00;0.88;;;19.20;99.90;;;;;;4974946;28;20177;-61
2022/07/01 10:12:18;;;;;;;5.57;1.08;;;20.00;99.90;;;;;;4962585;28;20188;-60
2022/07/01 10:14:45;;;;;;;5.03;0.77;;;19.90;99.90;;;;;;4974181;28;20179;-60
2022/07/01 10:17:27;;;;;;;7.65;1.10;;;20.10;99.90;;;;;;4974925;28;20196;-61
2022/07/01 10:20:05;;;;;;;10.48;1.60;;;20.00;99.90;;;;;;4974558;28;20180;-60
2022/07/01 10:22:31;;;;;;;4.82;1.00;;;19.70;99.90;;;;;;4974686;28;20184;-61
2022/07/01 10:25:35;;;;;;;4.90;0.77;;;19.50;99.90;;;;;;4974221;28;20226;-60
2022/07/01 10:28:27;;;;;;;6.28;0.93;;;19.50;99.90;;;;;;4970489;28;20589;-60
2022/07/01 10:31:05;;;;;;;2.45;0.50;;;19.30;99.90;;;;;;4966453;28;20199;-60
2022/07/01 10:33:46;;;;;;;3.08;0.85;;;19.30;99.90;;;;;;4973363;28;20242;-60
2022/07/01 10:36:12;;;;;;;4.88;0.88;;;19.40;99.90;;;;;;4954562;29;20569;-60
2022/07/01 10:39:10;;;;;;;2.63;0.70;;;19.50;99.90;;;;;;4953562;28;20255;-60
2022/07/01 10:41:41;;;;;;;3.78;0.70;;;19.40;99.90;;;;;;4970986;28;20175;-61
2022/07/01 10:44:15;;;;;;;6.38;0.90;;;19.70;99.90;;;;;;4974408;28;20207;-61
2022/07/01 10:46:44;;;;;;;4.75;0.80;;;20.30;99.90;;;;;;4974596;28;20174;-61
2022/07/01 10:49:14;;;;;;;4.85;0.60;;;20.10;99.90;;;;;;4974564;28;20219;-61
2022/07/01 10:51:46;;;;;;;5.25;0.77;;;19.60;99.90;;;;;;4974679;28;20172;-60
2022/07/01 10:54:12;;;;;;;2.65;0.60;;;19.60;99.90;;;;;;4974285;28;20172;-60
2022/07/01 10:56:41;;;;;;;4.28;0.80;;;20.00;99.90;;;;;;4974593;28;20183;-61
2022/07/01 10:59:07;;;;;;;2.63;0.77;;;20.40;99.90;;;;;;4956888;28;20534;-63
2022/07/01 11:01:33;;;;;;;3.85;0.60;;;21.20;99.90;;;;;;4974723;28;20164;-60
2022/07/01 11:04:02;;;;;;;4.68;0.60;;;21.30;99.90;;;;;;4972710;28;20231;-61
2022/07/01 11:06:27;;;;;;;4.18;0.73;;;21.30;99.90;;;;;;4970715;28;20534;-61
2022/07/01 11:08:54;;;;;;;8.50;0.73;;;21.40;99.90;;;;;;4973728;28;20172;-61
2022/07/01 11:11:20;;;;;;;3.15;0.98;;;21.20;99.90;;;;;;4973139;28;20241;-60
2022/07/01 11:13:46;;;;;;;6.22;0.80;;;20.80;99.90;;;;;;4974015;28;20683;-60
2022/07/01 11:16:14;;;;;;;3.70;0.73;;;19.90;99.90;;;;;;4973427;28;20223;-61
2022/07/01 11:18:40;;;;;;;3.83;0.55;;;19.10;99.90;;;;;;4974105;28;20168;-60
2022/07/01 11:21:08;;;;;;;7.05;1.00;;;19.10;99.90;;;;;;4973589;28;20188;-60
2022/07/01 11:23:34;;;;;;;4.28;0.77;;;18.80;99.90;;;;;;4973673;28;20200;-60
2022/07/01 11:26:00;;;;;;;6.03;1.00;;;18.50;99.90;;;;;;4956638;28;20184;-60
2022/07/01 11:28:26;;;;;;;5.30;0.70;;;18.50;99.90;;;;;;4973867;28;20176;-61
2022/07/01 11:31:01;;;;;;;7.70;0.75;;;18.50;99.90;;;;;;4973962;28;20673;-61
2022/07/01 11:33:27;;;;;;;5.93;0.80;;;18.60;99.90;;;;;;4973712;28;20199;-60
2022/07/01 11:41:27;;;;;;;5.00;0.70;;;18.00;99.90;;;;;;4973175;28;20179;-60
2022/07/01 11:43:53;;;;;;;4.75;0.50;;;17.70;99.90;;;;;;4973355;28;20575;-60
2022/07/01 11:46:20;;;;;;;2.38;0.60;;;17.60;99.90;;;;;;4973496;28;20282;-60
2022/07/01 11:48:51;;;;;;;3.95;0.57;;;17.50;99.90;;;;;;4973671;28;20172;-60
2022/07/01 11:51:22;;;;;;;2.00;0.85;;;17.50;99.90;;;;;;4973489;28;20188;-60
2022/07/01 11:53:50;;;;;;;6.97;1.00;;;17.60;99.90;;;;;;4972270;28;20742;-61
2022/07/01 11:56:17;;;;;;;4.25;0.68;;;17.80;99.90;;;;;;4973365;28;20643;-61
2022/07/01 11:58:52;;;;;;;8.25;0.93;;;18.10;99.90;;;;;;4973098;28;20172;-60
2022/07/01 12:01:35;;;;;;;6.97;1.00;;;18.30;99.90;;;;;;4973413;28;20184;-60
2022/07/01 12:04:03;;;;;;;5.50;0.80;;;18.50;99.90;;;;;;4973240;28;20215;-60
2022/07/01 12:06:30;;;;;;;13.77;1.52;;;18.60;99.90;;;;;;4972959;28;20179;-60
2022/07/01 12:08:56;;;;;;;6.50;1.05;;;18.40;99.90;;;;;;4973416;28;20242;-60
2022/07/01 12:11:24;;;;;;;7.97;1.10;;;17.60;99.90;;;;;;4972784;28;20319;-60
2022/07/01 12:13:50;;;;;;;7.15;1.00;;;16.50;99.90;;;;;;4972845;28;20179;-60
2022/07/01 12:16:17;;;;;;;7.40;1.20;;;16.00;99.90;;;;;;4972477;28;20191;-60
2022/07/01 12:18:56;;;;;;;7.35;0.80;;;15.80;99.90;;;;;;4972523;28;20650;-60
2022/07/01 12:21:22;;;;;;;7.90;0.90;;;15.80;99.90;;;;;;4971470;28;20300;-59
2022/07/01 12:24:11;;;;;;;13.07;0.90;;;16.00;99.90;;;;;;4970874;28;20199;-60
2022/07/01 12:26:58;;;;;;;2.83;1.02;;;16.20;99.90;;;;;;4951711;29;20242;-60
2022/07/01 12:29:26;;;;;;;2.92;0.47;;;16.30;99.90;;;;;;4951850;29;20172;-60
2022/07/01 12:32:25;;;;;;;3.10;0.80;;;16.40;99.90;;;;;;4952211;28;20176;-60
2022/07/01 12:34:52;;;;;;;3.40;0.60;;;16.60;99.90;;;;;;4961331;28;20164;-60
2022/07/01 12:37:20;;;;;;;2.75;0.63;;;16.90;99.90;;;;;;4972304;28;20264;-60
2022/07/01 12:40:06;;;;;;;1.23;0.38;;;16.90;99.90;;;;;;4972686;28;20238;-61
2022/07/01 12:42:40;;;;;;;3.28;0.60;;;16.90;99.90;;;;;;4972582;28;20538;-60
2022/07/01 12:45:11;;;;;;;5.50;0.85;;;16.90;99.90;;;;;;4971699;28;20423;-60
2022/07/01 12:47:39;;;;;;;1.23;0.50;;;17.10;99.90;;;;;;4972255;28;20168;-60
2022/07/01 12:50:20;;;;;;;0.80;0.30;;;17.10;99.90;;;;;;4972559;28;20172;-60
2022/07/01 12:53:11;;;;;;;2.53;0.50;;;17.20;99.90;;;;;;4972443;28;20176;-61
2022/07/01 12:55:42;;;;;;;2.75;0.30;;;17.30;99.90;;;;;;4971874;28;20679;-61
2022/07/01 12:58:19;;;;;;;1.73;0.45;;;17.60;99.90;;;;;;4972278;28;20215;-63
2022/07/01 13:00:47;;;;;;;0.95;0.30;;;17.80;99.90;;;;;;4972331;28;20186;-61
2022/07/01 13:03:13;;;;;;;2.97;0.50;;;17.80;99.90;;;;;;4972031;28;20187;-61
2022/07/01 13:05:40;;;;;;;4.72;0.40;;;18.10;99.90;;;;;;4971858;28;20667;-61